Terminal Aerodrome Forecast
Issued by NWS Memphis, TN

Home | Current Version | Previous Version | Text Only | Print | Product List | Glossary On
Versions: 1 2 3 4 5 6 7 8 9 10 11 12 13 14 15 16 17 18 19 20 21 22 23 24 25 26 27 28 29 30 31 32 33 34
606
FTUS44 KMEG 221150 AAA
TAFMEM
TAF AMD
KMEM 221150Z 2212/2312 VRB04KT P6SM FEW008 OVC012
      TEMPO 2212/2215 -SHRA OVC008
     FM221800 12004KT P6SM SCT025
     FM222100 17004KT P6SM SCT040
     FM230100 18003KT P6SM SCT250
     FM230900 18003KT 6SM BR FEW012=

USA.gov is the U.S. government's official web portal to all federal, state and local government web resources and services.